Time,TemperatureF,DewpointF,PressureIn,WindDirection,WindDirectionDegrees,WindSpeedMPH,WindSpeedGustMPH,Humidity,HourlyPrecipIn,Conditions,Clouds,dailyrainin,SoftwareType,DateUTC
2013-01-15 00:07:00,64.2,59.6,29.92,SSE,157,0.0,-999.0,85,-99.99,,,0.00,Acu-Link.com,2013-01-15 05:07:00,
2013-01-15 00:22:00,64.2,59.9,29.92,ENE,67,0.0,-999.0,86,-99.99,,,0.00,Acu-Link.com,2013-01-15 05:22:00,
2013-01-15 00:37:00,64.0,60.0,29.92,SSE,157,0.0,-999.0,87,-99.99,,,0.00,Acu-Link.com,2013-01-15 05:37:00,
2013-01-15 00:52:00,63.9,60.3,29.92,SW,225,0.0,-999.0,88,-99.99,,,0.00,Acu-Link.com,2013-01-15 05:52:00,
2013-01-15 01:07:00,63.7,60.4,29.92,SW,225,0.0,-999.0,89,-99.99,,,0.00,Acu-Link.com,2013-01-15 06:07:00,
2013-01-15 01:22:00,63.3,60.0,29.92,West,270,0.0,-999.0,89,-99.99,,,0.00,Acu-Link.com,2013-01-15 06:22:00,
2013-01-15 01:38:00,63.3,60.6,29.92,East,90,0.0,-999.0,91,-99.99,,,0.00,Acu-Link.com,2013-01-15 06:38:00,
2013-01-15 01:53:00,63.5,60.5,29.92,ESE,112,2.2,-999.0,90,-99.99,,,0.00,Acu-Link.com,2013-01-15 06:53:00,
2013-01-15 02:08:00,63.7,60.7,29.91,SW,225,0.0,-999.0,90,-99.99,,,0.00,Acu-Link.com,2013-01-15 07:08:00,
2013-01-15 02:23:00,63.1,60.1,29.92,SSW,202,0.0,-999.0,90,-99.99,,,0.00,Acu-Link.com,2013-01-15 07:23:00,
2013-01-15 02:38:00,63.0,60.3,29.92,SSW,202,0.0,-999.0,91,-99.99,,,0.00,Acu-Link.com,2013-01-15 07:38:00,
2013-01-15 02:53:00,62.6,59.9,29.92,SSW,202,0.0,-999.0,91,-99.99,,,0.00,Acu-Link.com,2013-01-15 07:53:00,
2013-01-15 03:08:00,62.4,60.0,29.91,NE,45,0.0,-999.0,92,-99.99,,,0.00,Acu-Link.com,2013-01-15 08:08:00,
2013-01-15 03:23:00,62.1,59.7,29.91,SSW,202,0.0,-999.0,92,-99.99,,,0.00,Acu-Link.com,2013-01-15 08:23:00,
2013-01-15 03:38:00,61.5,59.2,29.91,East,90,0.0,-999.0,92,-99.99,,,0.00,Acu-Link.com,2013-01-15 08:38:00,
2013-01-15 03:54:00,61.0,59.0,29.91,East,90,0.0,-999.0,93,-99.99,,,0.00,Acu-Link.com,2013-01-15 08:54:00,
2013-01-15 04:13:00,60.8,59.1,29.90,East,90,0.0,-999.0,94,-99.99,,,0.00,Acu-Link.com,2013-01-15 09:13:00,
2013-01-15 04:29:00,60.3,59.2,29.89,SSW,202,0.0,-999.0,96,-99.99,,,0.00,Acu-Link.com,2013-01-15 09:29:00,
2013-01-15 04:44:00,59.7,58.6,29.89,ESE,112,0.0,-999.0,96,-99.99,,,0.00,Acu-Link.com,2013-01-15 09:44:00,
2013-01-15 04:59:00,59.2,58.1,29.88,ESE,112,0.0,-999.0,96,-99.99,,,0.00,Acu-Link.com,2013-01-15 09:59:00,
2013-01-15 05:14:00,58.6,57.8,29.88,ENE,67,0.0,-999.0,97,-99.99,,,0.00,Acu-Link.com,2013-01-15 10:14:00,
2013-01-15 05:29:00,58.3,57.7,29.88,West,270,0.0,-999.0,98,-99.99,,,0.00,Acu-Link.com,2013-01-15 10:29:00,
2013-01-15 05:44:00,58.3,58.0,29.88,ESE,112,0.0,-999.0,99,-99.99,,,0.00,Acu-Link.com,2013-01-15 10:44:00,
2013-01-15 05:59:00,58.6,58.3,29.88,West,270,0.0,-999.0,99,-99.99,,,0.00,Acu-Link.com,2013-01-15 10:59:00,
2013-01-15 06:14:00,58.5,58.2,29.88,SW,225,0.0,-999.0,99,-99.99,,,0.00,Acu-Link.com,2013-01-15 11:14:00,
2013-01-15 06:30:00,58.1,57.8,29.89,SSE,157,0.0,-999.0,99,-99.99,,,0.00,Acu-Link.com,2013-01-15 11:30:00,
2013-01-15 06:45:00,58.3,58.0,29.89,SW,225,0.0,-999.0,99,-99.99,,,0.00,Acu-Link.com,2013-01-15 11:45:00,
2013-01-15 07:00:00,58.1,57.8,29.91,NE,45,0.0,-999.0,99,-99.99,,,0.00,Acu-Link.com,2013-01-15 12:00:00,
2013-01-15 07:15:00,57.6,57.3,29.91,SE,135,0.0,-999.0,99,-99.99,,,0.00,Acu-Link.com,2013-01-15 12:15:00,
2013-01-15 07:30:00,57.6,57.3,29.91,ENE,67,0.0,-999.0,99,-99.99,,,0.00,Acu-Link.com,2013-01-15 12:30:00,
2013-01-15 07:45:00,57.4,57.1,29.92,East,90,0.0,-999.0,99,-99.99,,,0.00,Acu-Link.com,2013-01-15 12:45:00,
2013-01-15 08:00:00,57.4,57.1,29.92,ESE,112,0.0,-999.0,99,-99.99,,,0.00,Acu-Link.com,2013-01-15 13:00:00,
2013-01-15 08:15:00,57.9,57.6,29.92,SSW,202,0.0,-999.0,99,-99.99,,,0.00,Acu-Link.com,2013-01-15 13:15:00,
2013-01-15 08:30:00,59.0,58.7,29.93,SW,225,1.1,-999.0,99,-99.99,,,0.00,Acu-Link.com,2013-01-15 13:30:00,
2013-01-15 08:46:00,59.7,59.4,29.93,SSW,202,0.0,-999.0,99,-99.99,,,0.00,Acu-Link.com,2013-01-15 13:46:00,
2013-01-15 09:01:00,60.6,59.7,29.93,SSW,202,2.2,-999.0,97,-99.99,,,0.00,Acu-Link.com,2013-01-15 14:01:00,
2013-01-15 09:16:00,61.9,59.5,29.93,SW,225,1.7,-999.0,92,-99.99,,,0.00,Acu-Link.com,2013-01-15 14:16:00,
2013-01-15 09:31:00,62.6,59.9,29.93,WNW,292,0.0,-999.0,91,-99.99,,,0.00,Acu-Link.com,2013-01-15 14:31:00,
2013-01-15 09:46:00,64.0,60.0,29.93,NE,45,1.7,-999.0,87,-99.99,,,0.00,Acu-Link.com,2013-01-15 14:46:00,
2013-01-15 10:01:00,64.9,59.9,29.94,West,270,2.2,-999.0,84,-99.99,,,0.00,Acu-Link.com,2013-01-15 15:01:00,
2013-01-15 10:16:00,66.2,60.2,29.93,SW,225,2.2,-999.0,81,-99.99,,,0.00,Acu-Link.com,2013-01-15 15:16:00,
2013-01-15 10:31:00,67.8,60.3,29.93,South,180,2.2,-999.0,77,-99.99,,,0.00,Acu-Link.com,2013-01-15 15:31:00,
2013-01-15 10:46:00,68.2,60.3,29.93,SW,225,2.2,-999.0,76,-99.99,,,0.00,Acu-Link.com,2013-01-15 15:46:00,
2013-01-15 11:02:00,69.3,59.9,29.92,SSE,157,1.1,-999.0,72,-99.99,,,0.00,Acu-Link.com,2013-01-15 16:02:00,
2013-01-15 11:17:00,69.8,60.0,29.92,SSE,157,1.7,-999.0,71,-99.99,,,0.00,Acu-Link.com,2013-01-15 16:17:00,
2013-01-15 11:32:00,71.4,60.3,29.90,SW,225,1.7,-999.0,68,-99.99,,,0.00,Acu-Link.com,2013-01-15 16:32:00,
2013-01-15 11:47:00,72.3,60.3,29.89,West,270,2.7,-999.0,66,-99.99,,,0.00,Acu-Link.com,2013-01-15 16:47:00,
2013-01-15 12:02:00,73.4,60.0,29.89,SW,225,4.7,-999.0,63,-99.99,,,0.00,Acu-Link.com,2013-01-15 17:02:00,
2013-01-15 12:17:00,73.2,59.8,29.87,SSE,157,2.7,-999.0,63,-99.99,,,0.00,Acu-Link.com,2013-01-15 17:17:00,
2013-01-15 12:32:00,74.3,60.4,29.88,SSW,202,2.7,-999.0,62,-99.99,,,0.00,Acu-Link.com,2013-01-15 17:32:00,
2013-01-15 12:47:00,74.3,60.0,29.86,South,180,2.2,-999.0,61,-99.99,,,0.00,Acu-Link.com,2013-01-15 17:47:00,
2013-01-15 13:02:00,74.8,60.0,29.86,South,180,3.7,-999.0,60,-99.99,,,0.00,Acu-Link.com,2013-01-15 18:02:00,
2013-01-15 13:18:00,74.1,59.8,29.85,WSW,247,2.7,-999.0,61,-99.99,,,0.00,Acu-Link.com,2013-01-15 18:18:00,
2013-01-15 13:33:00,75.0,60.2,29.84,SSW,202,3.7,-999.0,60,-99.99,,,0.00,Acu-Link.com,2013-01-15 18:33:00,
2013-01-15 13:48:00,75.6,60.2,29.84,SSW,202,2.2,-999.0,59,-99.99,,,0.00,Acu-Link.com,2013-01-15 18:48:00,
2013-01-15 14:03:00,75.2,59.9,29.83,SSE,157,3.2,-999.0,59,-99.99,,,0.00,Acu-Link.com,2013-01-15 19:03:00,
2013-01-15 14:18:00,76.1,59.2,29.83,South,180,3.7,-999.0,56,-99.99,,,0.00,Acu-Link.com,2013-01-15 19:18:00,
2013-01-15 14:33:00,76.1,59.7,29.83,WSW,247,4.2,-999.0,57,-99.99,,,0.00,Acu-Link.com,2013-01-15 19:33:00,
2013-01-15 14:48:00,75.4,59.6,29.83,South,180,3.7,-999.0,58,-99.99,,,0.00,Acu-Link.com,2013-01-15 19:48:00,
2013-01-15 15:03:00,75.9,59.6,29.83,NW,315,1.7,-999.0,57,-99.99,,,0.00,Acu-Link.com,2013-01-15 20:03:00,
2013-01-15 15:18:00,75.6,59.8,29.83,South,180,3.2,-999.0,58,-99.99,,,0.00,Acu-Link.com,2013-01-15 20:18:00,
2013-01-15 15:34:00,75.7,59.4,29.83,South,180,2.7,-999.0,57,-99.99,,,0.00,Acu-Link.com,2013-01-15 20:34:00,
2013-01-15 15:49:00,75.2,59.4,29.83,SW,225,2.7,-999.0,58,-99.99,,,0.00,Acu-Link.com,2013-01-15 20:49:00,
2013-01-15 16:04:00,75.2,59.4,29.83,NW,315,2.7,-999.0,58,-99.99,,,0.00,Acu-Link.com,2013-01-15 21:04:00,
2013-01-15 16:19:00,74.8,59.5,29.84,South,180,2.2,-999.0,59,-99.99,,,0.00,Acu-Link.com,2013-01-15 21:19:00,
2013-01-15 16:34:00,74.5,59.2,29.84,SSE,157,0.0,-999.0,59,-99.99,,,0.00,Acu-Link.com,2013-01-15 21:34:00,
2013-01-15 16:49:00,74.3,59.5,29.83,South,180,3.2,-999.0,60,-99.99,,,0.00,Acu-Link.com,2013-01-15 21:49:00,
2013-01-15 17:04:00,73.6,59.3,29.84,SW,225,1.7,-999.0,61,-99.99,,,0.00,Acu-Link.com,2013-01-15 22:04:00,
2013-01-15 17:19:00,72.7,58.9,29.84,SSE,157,1.7,-999.0,62,-99.99,,,0.00,Acu-Link.com,2013-01-15 22:19:00,
2013-01-15 17:34:00,71.8,59.0,29.84,SE,135,1.1,-999.0,64,-99.99,,,0.00,Acu-Link.com,2013-01-15 22:34:00,
2013-01-15 17:49:00,71.1,59.2,29.85,ESE,112,0.0,-999.0,66,-99.99,,,0.00,Acu-Link.com,2013-01-15 22:49:00,
2013-01-15 18:05:00,70.7,59.2,29.86,ESE,112,0.0,-999.0,67,-99.99,,,0.00,Acu-Link.com,2013-01-15 23:05:00,
2013-01-15 18:20:00,70.3,59.2,29.85,SSE,157,0.0,-999.0,68,-99.99,,,0.00,Acu-Link.com,2013-01-15 23:20:00,
2013-01-15 18:35:00,69.8,58.8,29.86,East,90,0.0,-999.0,68,-99.99,,,0.00,Acu-Link.com,2013-01-15 23:35:00,
2013-01-15 18:50:00,69.1,58.9,29.87,East,90,0.0,-999.0,70,-99.99,,,0.00,Acu-Link.com,2013-01-15 23:50:00,
2013-01-15 19:05:00,68.2,58.8,29.86,East,90,0.0,-999.0,72,-99.99,,,0.00,Acu-Link.com,2013-01-16 00:05:00,
2013-01-15 19:20:00,67.5,58.9,29.86,East,90,0.0,-999.0,74,-99.99,,,0.00,Acu-Link.com,2013-01-16 00:20:00,
2013-01-15 19:35:00,67.1,58.9,29.85,East,90,0.0,-999.0,75,-99.99,,,0.00,Acu-Link.com,2013-01-16 00:35:00,
2013-01-15 19:50:00,66.9,59.1,29.84,West,270,0.0,-999.0,76,-99.99,,,0.00,Acu-Link.com,2013-01-16 00:50:00,
2013-01-15 20:05:00,66.9,59.1,29.84,East,90,0.0,-999.0,76,-99.99,,,0.00,Acu-Link.com,2013-01-16 01:05:00,
2013-01-15 20:21:00,67.1,58.9,29.84,South,180,0.0,-999.0,75,-99.99,,,0.00,Acu-Link.com,2013-01-16 01:21:00,
2013-01-15 20:36:00,67.1,59.3,29.83,ESE,112,0.0,-999.0,76,-99.99,,,0.00,Acu-Link.com,2013-01-16 01:36:00,
2013-01-15 20:51:00,66.9,58.7,29.82,NE,45,1.1,-999.0,75,-99.99,,,0.00,Acu-Link.com,2013-01-16 01:51:00,
2013-01-15 21:06:00,66.7,58.5,29.81,SSE,157,0.0,-999.0,75,-99.99,,,0.00,Acu-Link.com,2013-01-16 02:06:00,
2013-01-15 21:21:00,66.4,58.2,29.81,SSE,157,0.0,-999.0,75,-99.99,,,0.00,Acu-Link.com,2013-01-16 02:21:00,
2013-01-15 21:36:00,67.1,58.5,29.81,South,180,1.1,-999.0,74,-99.99,,,0.00,Acu-Link.com,2013-01-16 02:36:00,
2013-01-15 21:51:00,66.7,58.1,29.81,East,90,1.7,-999.0,74,-99.99,,,0.00,Acu-Link.com,2013-01-16 02:51:00,
2013-01-15 22:06:00,66.9,58.3,29.82,West,270,1.7,-999.0,74,-99.99,,,0.00,Acu-Link.com,2013-01-16 03:06:00,
2013-01-15 22:21:00,67.3,59.1,29.82,SW,225,1.7,-999.0,75,-99.99,,,0.00,Acu-Link.com,2013-01-16 03:21:00,
2013-01-15 22:37:00,67.5,59.3,29.81,SW,225,2.7,-999.0,75,-99.99,,,0.00,Acu-Link.com,2013-01-16 03:37:00,
2013-01-15 22:52:00,67.3,59.5,29.81,ENE,67,1.1,-999.0,76,-99.99,,,0.00,Acu-Link.com,2013-01-16 03:52:00,
2013-01-15 23:07:00,66.7,59.6,29.81,South,180,1.7,-999.0,78,-99.99,,,0.00,Acu-Link.com,2013-01-16 04:07:00,
2013-01-15 23:22:00,66.7,60.0,29.80,SW,225,2.2,-999.0,79,-99.99,,,0.00,Acu-Link.com,2013-01-16 04:22:00,
2013-01-15 23:37:00,66.9,60.2,29.81,SSE,157,2.2,-999.0,79,-99.99,,,0.00,Acu-Link.com,2013-01-16 04:37:00,
2013-01-15 23:52:00,67.1,60.4,29.80,WSW,247,2.7,-999.0,79,-99.99,,,0.00,Acu-Link.com,2013-01-16 04:52:00,